createdAt,value
2018-10-11T00:00:43.681Z,16.70
2018-10-11T00:01:43.661Z,16.90
2018-10-11T00:02:43.651Z,17.20
2018-10-11T00:03:43.640Z,17.10
2018-10-11T00:04:43.626Z,17.50
2018-10-11T00:05:43.635Z,17.80
2018-10-11T00:06:43.609Z,16.90
2018-10-11T00:07:43.596Z,17.30
2018-10-11T00:08:43.586Z,17.50
2018-10-11T00:09:43.579Z,17.70
2018-10-11T00:10:43.577Z,17.10
2018-10-11T00:11:43.608Z,16.70
2018-10-11T00:12:43.543Z,17.10
2018-10-11T00:13:43.530Z,17.30
2018-10-11T00:14:43.518Z,17.20
2018-10-11T00:15:43.532Z,17.30
2018-10-11T00:16:43.498Z,16.80
2018-10-11T00:17:43.489Z,16.40
2018-10-11T00:18:43.473Z,17.10
2018-10-11T00:19:43.465Z,16.90
2018-10-11T00:20:43.470Z,17.10
2018-10-11T00:21:43.439Z,17.10
2018-10-11T00:22:43.434Z,17.10
2018-10-11T00:23:43.417Z,16.80
2018-10-11T00:24:43.405Z,17.70
2018-10-11T00:25:43.416Z,17.40
2018-10-11T00:26:43.390Z,16.60
2018-10-11T00:27:43.378Z,17.90
2018-10-11T00:28:43.369Z,17.60
2018-10-11T00:29:43.350Z,17.70
2018-10-11T00:30:43.427Z,17.30
2018-10-11T00:31:43.331Z,17.20
2018-10-11T00:32:43.333Z,17.00
2018-10-11T00:33:43.309Z,17.40
2018-10-11T00:34:43.294Z,17.40
2018-10-11T00:35:43.300Z,17.10
2018-10-11T00:36:43.274Z,17.70
2018-10-11T00:37:43.260Z,17.30
2018-10-11T00:38:43.253Z,17.60
2018-10-11T00:39:43.239Z,17.50
2018-10-11T00:40:43.246Z,17.60
2018-10-11T00:41:43.216Z,17.50
2018-10-11T00:42:43.205Z,17.90
2018-10-11T00:43:43.195Z,17.80
2018-10-11T00:44:43.182Z,17.40
2018-10-11T00:45:43.207Z,18.20
2018-10-11T00:46:43.165Z,17.70
2018-10-11T00:47:43.153Z,17.40
2018-10-11T00:48:43.138Z,17.80
2018-10-11T00:49:43.129Z,17.40
2018-10-11T00:50:43.138Z,17.60
2018-10-11T00:51:43.125Z,17.60
2018-10-11T00:52:43.094Z,18.10
2018-10-11T00:53:43.086Z,18.10
2018-10-11T00:54:43.071Z,18.10
2018-10-11T00:55:43.060Z,18.50
2018-10-11T00:56:43.070Z,18.30
2018-10-11T00:57:43.046Z,18.10
2018-10-11T00:58:43.031Z,18.30
2018-10-11T00:59:43.021Z,18.30
2018-10-11T01:00:43.004Z,18.20
2018-10-11T01:01:43.043Z,18.50
2018-10-11T01:02:42.984Z,18.70
2018-10-11T01:03:42.978Z,18.20
2018-10-11T01:04:42.960Z,19.10
2018-10-11T01:05:42.949Z,19.30
2018-10-11T01:06:42.965Z,18.40
2018-10-11T01:07:42.928Z,17.60
2018-10-11T01:08:42.917Z,19.20
2018-10-11T01:09:42.906Z,18.70
2018-10-11T01:10:42.897Z,19.00
2018-10-11T01:11:42.933Z,18.50
2018-10-11T01:12:42.889Z,19.00
2018-10-11T01:13:42.862Z,18.90
2018-10-11T01:14:42.849Z,19.30
2018-10-11T01:15:42.843Z,18.40
2018-10-11T01:16:42.828Z,18.70
2018-10-11T01:17:42.837Z,19.10
2018-10-11T01:18:42.824Z,18.70
2018-10-11T01:19:42.795Z,18.90
2018-10-11T01:20:42.785Z,19.00
2018-10-11T01:21:42.770Z,19.30
2018-10-11T01:22:42.784Z,19.40
2018-10-11T01:23:42.843Z,19.30
2018-10-11T01:24:42.744Z,19.50
2018-10-11T01:25:42.733Z,19.00
2018-10-11T01:26:42.721Z,19.50
2018-10-11T01:27:42.740Z,19.20
2018-10-11T01:28:42.693Z,19.20
2018-10-11T01:29:42.763Z,20.00
2018-10-11T01:30:42.673Z,19.60
2018-10-11T01:31:42.660Z,19.30
2018-10-11T01:32:42.649Z,19.40
2018-10-11T01:33:42.656Z,19.20
2018-10-11T01:34:42.628Z,20.10
2018-10-11T01:35:42.616Z,20.00
2018-10-11T01:36:42.612Z,20.00
2018-10-11T01:37:42.597Z,19.40
2018-10-11T01:38:42.634Z,19.60
2018-10-11T01:39:42.570Z,20.10
2018-10-11T01:40:42.562Z,19.60
2018-10-11T01:41:42.548Z,19.80
2018-10-11T01:42:42.536Z,19.40
2018-10-11T01:43:42.548Z,19.50
2018-10-11T01:44:42.524Z,19.60
2018-10-11T01:45:42.504Z,19.90
2018-10-11T01:46:42.495Z,19.90
2018-10-11T01:47:42.483Z,19.80
2018-10-11T01:48:42.505Z,19.60
2018-10-11T01:49:42.463Z,19.20
2018-10-11T01:50:42.455Z,19.80
2018-10-11T01:51:42.492Z,19.40
2018-10-11T01:52:42.428Z,19.90
2018-10-11T01:53:42.424Z,19.30
2018-10-11T01:54:42.427Z,19.90
2018-10-11T01:55:42.398Z,19.80
2018-10-11T01:56:42.414Z,19.90
2018-10-11T01:57:42.374Z,20.20
2018-10-11T01:58:42.358Z,20.20
2018-10-11T01:59:42.366Z,20.00
2018-10-11T02:00:42.338Z,20.40
2018-10-11T02:01:42.335Z,19.80
2018-10-11T02:02:42.314Z,19.90
2018-10-11T02:03:42.306Z,20.60
2018-10-11T02:04:42.309Z,20.70
2018-10-11T02:05:42.280Z,19.50
2018-10-11T02:06:42.269Z,20.60
2018-10-11T02:07:42.265Z,20.40
2018-10-11T02:08:42.251Z,20.10
2018-10-11T02:09:42.273Z,19.80
2018-10-11T02:10:42.227Z,20.20
2018-10-11T02:11:42.214Z,20.60
2018-10-11T02:12:42.202Z,19.80
2018-10-11T02:13:42.196Z,20.20
2018-10-11T02:14:42.215Z,20.40
2018-10-11T02:15:42.192Z,21.40
2018-10-11T02:16:42.158Z,20.30
2018-10-11T02:17:42.148Z,20.80
2018-10-11T02:18:42.138Z,20.30
2018-10-11T02:19:42.129Z,20.90
2018-10-11T02:20:42.135Z,20.50
2018-10-11T02:21:42.103Z,20.90
2018-10-11T02:22:42.091Z,20.80
2018-10-11T02:23:42.083Z,20.40
2018-10-11T02:24:42.078Z,20.80
2018-10-11T02:25:42.083Z,20.10
2018-10-11T02:26:42.048Z,21.10
2018-10-11T02:27:42.047Z,20.30
2018-10-11T02:28:42.026Z,20.60
2018-10-11T02:29:42.015Z,20.90
2018-10-11T02:30:42.035Z,21.30
2018-10-11T02:31:42.004Z,20.90
2018-10-11T02:32:41.982Z,21.00
2018-10-11T02:33:41.970Z,21.10
2018-10-11T02:34:41.961Z,20.30
2018-10-11T02:35:41.952Z,21.20
2018-10-11T02:36:41.968Z,21.10
2018-10-11T02:37:41.935Z,21.40
2018-10-11T02:38:41.918Z,21.10
2018-10-11T02:39:41.906Z,20.70
2018-10-11T02:40:41.897Z,20.40
2018-10-11T02:41:41.905Z,20.20
2018-10-11T02:42:41.875Z,21.30
2018-10-11T02:43:41.865Z,21.20
2018-10-11T02:44:41.850Z,20.80
2018-10-11T02:45:41.840Z,21.40
2018-10-11T02:46:41.850Z,21.50
2018-10-11T02:47:41.819Z,20.50
2018-10-11T02:48:41.809Z,20.80
2018-10-11T02:49:41.796Z,21.30
2018-10-11T02:50:41.786Z,21.10
2018-10-11T02:51:41.804Z,21.80
2018-10-11T02:52:41.768Z,21.70
2018-10-11T02:53:41.753Z,21.10
2018-10-11T02:54:41.748Z,20.50
2018-10-11T02:55:41.734Z,21.00
2018-10-11T02:56:41.720Z,21.00
2018-10-11T02:57:41.733Z,21.40
2018-10-11T02:58:41.700Z,20.60
2018-10-11T02:59:41.692Z,21.40
2018-10-11T03:00:41.679Z,21.50
2018-10-11T03:01:41.670Z,20.90
2018-10-11T03:02:41.674Z,20.60
2018-10-11T03:03:41.644Z,21.20
2018-10-11T03:04:41.635Z,20.60
2018-10-11T03:05:41.625Z,20.80
2018-10-11T03:06:41.619Z,20.60
2018-10-11T03:07:41.628Z,20.80
2018-10-11T03:08:41.589Z,21.40
2018-10-11T03:09:41.581Z,21.30
2018-10-11T03:10:41.568Z,21.20
2018-10-11T03:11:41.561Z,21.90
2018-10-11T03:12:41.570Z,21.20
2018-10-11T03:13:41.544Z,21.00
2018-10-11T03:14:41.524Z,21.70
2018-10-11T03:15:41.520Z,20.40
2018-10-11T03:16:41.508Z,21.90
2018-10-11T03:17:41.520Z,20.70
2018-10-11T03:18:41.491Z,22.00
2018-10-11T03:19:41.469Z,21.20
2018-10-11T03:20:41.458Z,21.30
2018-10-11T03:21:41.449Z,21.70
2018-10-11T03:22:41.437Z,21.30
2018-10-11T03:23:41.447Z,21.10
2018-10-11T03:24:41.418Z,21.40
2018-10-11T03:25:41.404Z,21.10
2018-10-11T03:26:41.392Z,21.00
2018-10-11T03:27:41.383Z,21.30
2018-10-11T03:28:41.392Z,21.60
2018-10-11T03:29:41.372Z,21.50
2018-10-11T03:30:41.360Z,22.10
2018-10-11T03:31:41.343Z,21.30
2018-10-11T03:32:41.335Z,22.00
2018-10-11T03:33:41.337Z,20.90
2018-10-11T03:34:41.307Z,21.40
2018-10-11T03:35:41.303Z,21.40
2018-10-11T03:36:41.283Z,21.00
2018-10-11T03:37:41.273Z,21.50
2018-10-11T03:38:41.290Z,21.90
2018-10-11T03:39:41.251Z,21.30
2018-10-11T03:40:41.240Z,21.10
2018-10-11T03:41:41.232Z,22.00
2018-10-11T03:42:41.217Z,21.40
2018-10-11T03:43:41.226Z,21.70
2018-10-11T03:44:41.214Z,22.00
2018-10-11T03:45:41.191Z,21.20
2018-10-11T03:46:41.261Z,22.10
2018-10-11T03:47:41.167Z,21.90
2018-10-11T03:48:41.155Z,21.50
2018-10-11T03:49:41.170Z,21.40
2018-10-11T03:50:41.130Z,21.20
2018-10-11T03:51:41.120Z,21.40
2018-10-11T03:52:41.113Z,21.80
2018-10-11T03:53:41.105Z,22.00
2018-10-11T03:54:41.110Z,22.00
2018-10-11T03:55:41.078Z,21.40
2018-10-11T03:56:41.066Z,21.70
2018-10-11T03:57:41.061Z,22.30
2018-10-11T03:58:41.046Z,22.60
2018-10-11T03:59:41.064Z,21.50
2018-10-11T04:00:41.025Z,22.10
2018-10-11T04:01:41.011Z,22.40
2018-10-11T04:02:41.002Z,22.50
2018-10-11T04:03:40.993Z,22.00
2018-10-11T04:04:40.983Z,22.30
2018-10-11T04:05:40.993Z,21.70
2018-10-11T04:06:40.959Z,22.40
2018-10-11T04:07:41.081Z,22.60
2018-10-11T04:08:40.934Z,23.00
2018-10-11T04:09:40.981Z,22.70
2018-10-11T04:10:40.938Z,21.80
2018-10-11T04:11:40.902Z,22.50
2018-10-11T04:12:40.891Z,23.00
2018-10-11T04:13:40.883Z,22.70
2018-10-11T04:14:40.870Z,22.30
2018-10-11T04:15:40.931Z,23.20
2018-10-11T04:16:40.848Z,22.10
2018-10-11T04:17:40.840Z,22.70
2018-10-11T04:18:40.824Z,22.80
2018-10-11T04:19:40.817Z,22.90
2018-10-11T04:20:40.835Z,22.90
2018-10-11T04:21:40.796Z,23.20
2018-10-11T04:22:40.781Z,22.80
2018-10-11T04:23:40.773Z,23.00
2018-10-11T04:24:40.763Z,23.90
2018-10-11T04:25:40.749Z,22.80
2018-10-11T04:26:40.755Z,22.90
2018-10-11T04:27:40.767Z,22.80
2018-10-11T04:28:40.721Z,23.50
2018-10-11T04:29:40.708Z,23.10
2018-10-11T04:30:40.695Z,23.00
2018-10-11T04:31:40.700Z,23.10
2018-10-11T04:32:41.285Z,22.80
2018-10-11T04:33:40.665Z,23.50
2018-10-11T04:34:40.661Z,23.20
2018-10-11T04:35:40.644Z,23.30
2018-10-11T04:36:40.655Z,24.40
2018-10-11T04:37:40.623Z,22.90
2018-10-11T04:38:40.611Z,23.20
2018-10-11T04:39:40.597Z,23.60
2018-10-11T04:40:40.590Z,23.10
2018-10-11T04:41:40.608Z,24.40
2018-10-11T04:42:40.587Z,24.20
2018-10-11T04:43:40.553Z,23.90
2018-10-11T04:44:40.547Z,23.60
2018-10-11T04:45:40.531Z,23.70
2018-10-11T04:46:40.554Z,23.90
2018-10-11T04:47:40.513Z,23.50
2018-10-11T04:48:40.498Z,23.80
2018-10-11T04:49:40.490Z,23.80
2018-10-11T04:50:40.477Z,23.80
2018-10-11T04:51:40.469Z,24.20
2018-10-11T04:52:40.475Z,24.30
2018-10-11T04:53:40.543Z,23.10
2018-10-11T04:54:40.433Z,24.00
2018-10-11T04:55:40.424Z,23.00
2018-10-11T04:56:40.416Z,23.90
2018-10-11T04:57:40.419Z,24.10
2018-10-11T04:58:40.391Z,24.20
2018-10-11T04:59:40.387Z,24.50
2018-10-11T05:00:40.369Z,24.60
2018-10-11T05:01:40.356Z,24.50
2018-10-11T05:02:40.371Z,24.70
2018-10-11T05:03:40.343Z,24.60
2018-10-11T05:04:40.324Z,24.60
2018-10-11T05:05:40.312Z,25.30
2018-10-11T05:06:40.304Z,24.70
2018-10-11T05:07:40.330Z,24.60
2018-10-11T05:08:40.282Z,24.60
2018-10-11T05:09:40.287Z,25.10
2018-10-11T05:10:40.264Z,25.70
2018-10-11T05:11:40.249Z,24.50
2018-10-11T05:12:40.237Z,25.20
2018-10-11T05:13:40.242Z,24.70
2018-10-11T05:14:40.218Z,24.20
2018-10-11T05:15:40.205Z,24.50
2018-10-11T05:16:40.193Z,24.60
2018-10-11T05:17:40.185Z,25.70
2018-10-11T05:18:40.201Z,25.00
2018-10-11T05:19:40.162Z,25.20
2018-10-11T05:20:40.149Z,25.60
2018-10-11T05:21:40.139Z,24.80
2018-10-11T05:22:40.128Z,25.50
2018-10-11T05:23:40.148Z,25.30
2018-10-11T05:24:40.107Z,25.10
2018-10-11T05:25:40.097Z,24.20
2018-10-11T05:26:40.091Z,25.50
2018-10-11T05:27:40.076Z,24.40
2018-10-11T05:28:40.082Z,25.00
2018-10-11T05:29:40.071Z,25.40
2018-10-11T05:30:40.041Z,24.40
2018-10-11T05:31:40.034Z,24.50
2018-10-11T05:32:40.022Z,25.30
2018-10-11T05:33:40.007Z,24.70
2018-10-11T05:34:40.020Z,24.90
2018-10-11T05:35:39.987Z,24.80
2018-10-11T05:36:39.975Z,24.90
2018-10-11T05:37:39.963Z,25.60
2018-10-11T05:38:39.956Z,24.80
2018-10-11T05:39:39.963Z,24.70
2018-10-11T05:40:39.933Z,25.30
2018-10-11T05:41:39.924Z,24.30
2018-10-11T05:42:39.911Z,24.50
2018-10-11T05:43:39.899Z,25.50
2018-10-11T05:44:39.918Z,25.50
2018-10-11T05:45:39.878Z,24.80
2018-10-11T05:46:39.866Z,25.20
2018-10-11T05:47:39.853Z,25.70
2018-10-11T05:48:39.845Z,25.30
2018-10-11T05:49:39.835Z,25.40
2018-10-11T05:50:39.840Z,24.80
2018-10-11T05:51:39.825Z,25.20
2018-10-11T05:52:39.800Z,25.70
2018-10-11T05:53:39.790Z,25.70
2018-10-11T05:54:39.778Z,25.90
2018-10-11T05:55:39.784Z,25.00
2018-10-11T05:56:39.863Z,24.90
2018-10-11T05:57:39.746Z,25.50
2018-10-11T05:58:39.734Z,24.60
2018-10-11T05:59:39.726Z,25.50
2018-10-11T06:00:39.743Z,24.80
2018-10-11T06:01:39.701Z,25.10
2018-10-11T06:02:39.692Z,25.10
2018-10-11T06:03:39.688Z,24.90
2018-10-11T06:04:39.670Z,25.10
2018-10-11T06:05:39.659Z,24.20
2018-10-11T06:06:39.664Z,25.10
2018-10-11T06:07:39.640Z,25.00
2018-10-11T06:08:39.625Z,24.10
2018-10-11T06:09:39.616Z,25.00
2018-10-11T06:10:39.607Z,25.20
2018-10-11T06:11:39.609Z,24.50
2018-10-11T06:12:39.585Z,24.20
2018-10-11T06:13:39.577Z,25.60
2018-10-11T06:14:39.580Z,24.30
2018-10-11T06:15:39.550Z,25.00
2018-10-11T06:16:39.623Z,24.70
2018-10-11T06:17:39.564Z,24.90
2018-10-11T06:18:39.534Z,24.60
2018-10-11T06:19:39.506Z,24.90
2018-10-11T06:20:39.501Z,24.40
2018-10-11T06:21:39.486Z,24.40
2018-10-11T06:22:39.493Z,24.80
2018-10-11T06:23:39.463Z,25.40
2018-10-11T06:24:39.527Z,24.80
2018-10-11T06:25:39.447Z,24.50
2018-10-11T06:26:39.435Z,24.70
2018-10-11T06:27:39.447Z,24.60
2018-10-11T06:28:39.408Z,24.20
2018-10-11T06:29:39.396Z,24.20
2018-10-11T06:30:39.390Z,23.40
2018-10-11T06:31:39.379Z,24.00
2018-10-11T06:32:39.383Z,23.60
2018-10-11T06:33:39.357Z,22.70
2018-10-11T06:34:39.341Z,23.20
2018-10-11T06:35:39.334Z,23.60
2018-10-11T06:36:39.404Z,23.10
2018-10-11T06:37:39.348Z,22.90
2018-10-11T06:38:39.311Z,23.10
2018-10-11T06:39:39.288Z,22.80
2018-10-11T06:40:39.278Z,22.90
2018-10-11T06:41:39.304Z,22.50
2018-10-11T06:42:39.302Z,21.80
2018-10-11T06:43:39.266Z,22.00
2018-10-11T06:44:39.244Z,22.60
2018-10-11T06:45:39.233Z,23.20
2018-10-11T06:46:39.212Z,22.90
2018-10-11T06:47:39.221Z,22.00
2018-10-11T06:48:39.210Z,22.60
2018-10-11T06:49:39.181Z,21.70
2018-10-11T06:50:39.166Z,22.50
2018-10-11T06:51:39.156Z,22.30
2018-10-11T06:52:39.166Z,22.30
2018-10-11T06:53:39.138Z,22.20
2018-10-11T06:54:39.130Z,21.80
2018-10-11T06:55:39.124Z,21.70
2018-10-11T06:56:39.119Z,22.30
2018-10-11T06:57:39.135Z,21.40
2018-10-11T06:58:39.088Z,21.10
2018-10-11T06:59:39.075Z,22.30
2018-10-11T07:00:39.065Z,22.40
2018-10-11T07:01:39.081Z,21.80
2018-10-11T07:02:39.036Z,22.30
2018-10-11T07:03:39.041Z,21.60
2018-10-11T07:04:39.019Z,21.90
2018-10-11T07:05:39.024Z,21.00
2018-10-11T07:06:38.994Z,21.30
2018-10-11T07:07:38.988Z,20.90
2018-10-11T07:08:38.990Z,20.20
2018-10-11T07:09:38.960Z,20.00
2018-10-11T07:10:38.949Z,20.20
2018-10-11T07:11:38.949Z,19.20
2018-10-11T07:12:38.928Z,20.10
2018-10-11T07:13:38.944Z,19.20
2018-10-11T07:14:38.907Z,20.10
2018-10-11T07:15:38.895Z,20.60
2018-10-11T07:16:38.885Z,19.50
2018-10-11T07:17:38.873Z,20.30
2018-10-11T07:18:38.866Z,20.00
2018-10-11T07:19:38.875Z,19.90
2018-10-11T07:20:38.841Z,19.70
2018-10-11T07:21:38.829Z,19.00
2018-10-11T07:22:38.817Z,19.10
2018-10-11T07:23:38.807Z,19.30
2018-10-11T07:24:38.813Z,18.90
2018-10-11T07:25:38.785Z,18.50
2018-10-11T07:26:38.774Z,18.00
2018-10-11T07:27:38.763Z,18.10
2018-10-11T07:28:38.758Z,19.30
2018-10-11T07:29:38.771Z,19.50
2018-10-11T07:30:38.736Z,19.60
2018-10-11T07:31:38.733Z,20.00
2018-10-11T07:32:38.711Z,19.50
2018-10-11T07:33:38.719Z,19.30
2018-10-11T07:34:38.757Z,18.60
2018-10-11T07:35:38.692Z,18.60
2018-10-11T07:36:38.668Z,18.40
2018-10-11T07:37:38.652Z,18.00
2018-10-11T07:38:38.644Z,18.00
2018-10-11T07:39:38.633Z,17.40
2018-10-11T07:40:38.782Z,16.60
2018-10-11T07:41:38.610Z,18.00
2018-10-11T07:42:38.602Z,17.90
2018-10-11T07:43:38.588Z,17.30
2018-10-11T07:44:38.577Z,17.60
2018-10-11T07:45:38.598Z,17.00
2018-10-11T07:46:38.558Z,17.90
2018-10-11T07:47:38.553Z,17.60
2018-10-11T07:48:38.541Z,17.80
2018-10-11T07:49:38.526Z,17.40
2018-10-11T07:50:38.533Z,17.40
2018-10-11T07:51:38.524Z,17.00
2018-10-11T07:52:38.513Z,16.80
2018-10-11T07:53:38.476Z,17.10
2018-10-11T07:54:38.471Z,17.40
2018-10-11T07:55:38.458Z,17.00
2018-10-11T07:56:38.502Z,16.20
2018-10-11T07:57:38.431Z,16.60
2018-10-11T07:58:38.424Z,17.00
2018-10-11T07:59:38.436Z,17.10
2018-10-11T08:00:38.398Z,17.40
2018-10-11T08:01:38.444Z,17.30
2018-10-11T08:02:38.377Z,17.10
2018-10-11T08:03:38.473Z,16.60
2018-10-11T08:04:38.354Z,16.70
2018-10-11T08:05:38.353Z,16.30
2018-10-11T08:06:38.364Z,16.20
2018-10-11T08:07:38.356Z,16.20
2018-10-11T08:08:38.327Z,16.80
2018-10-11T08:09:38.298Z,16.50
2018-10-11T08:10:38.457Z,16.70
2018-10-11T08:11:38.479Z,16.90
2018-10-11T08:12:38.284Z,16.10
2018-10-11T08:13:38.292Z,16.60
2018-10-11T08:14:38.247Z,16.50
2018-10-11T08:15:38.234Z,16.40
2018-10-11T08:16:38.400Z,17.40
2018-10-11T08:17:38.691Z,16.70
2018-10-11T08:18:38.292Z,16.40
2018-10-11T08:19:38.203Z,17.30
2018-10-11T08:20:38.259Z,17.20
2018-10-11T08:21:45.934Z,17.10
2018-10-11T08:22:38.155Z,17.50
2018-10-11T08:23:38.167Z,17.10
2018-10-11T08:24:38.178Z,16.80
2018-10-11T08:25:38.560Z,17.30
2018-10-11T08:26:38.166Z,17.20
2018-10-11T08:27:38.097Z,17.20
2018-10-11T08:28:38.103Z,17.10
2018-10-11T08:29:38.079Z,17.00
2018-10-11T08:30:38.063Z,17.10
2018-10-11T08:31:38.121Z,17.00
2018-10-11T08:32:38.176Z,16.80
2018-10-11T08:33:38.054Z,17.00
2018-10-11T08:34:38.030Z,16.30
2018-10-11T08:35:38.009Z,17.00
2018-10-11T08:36:37.998Z,16.70
2018-10-11T08:37:38.071Z,16.20
2018-10-11T08:38:38.150Z,16.80
2018-10-11T08:39:37.971Z,16.40
2018-10-11T08:40:37.952Z,16.20
2018-10-11T08:41:37.941Z,16.60
2018-10-11T08:42:37.931Z,16.70
2018-10-11T08:43:38.037Z,16.40
2018-10-11T08:44:37.928Z,16.10
2018-10-11T08:45:37.904Z,16.40
2018-10-11T08:46:37.887Z,16.50
2018-10-11T08:47:37.875Z,16.00
2018-10-11T08:48:37.866Z,15.90
2018-10-11T08:49:37.885Z,15.60
2018-10-11T08:50:37.875Z,15.70
2018-10-11T08:51:37.831Z,16.00
2018-10-11T08:52:37.824Z,15.40
2018-10-11T08:53:37.881Z,15.60
2018-10-11T08:54:37.834Z,15.10
2018-10-11T08:55:37.949Z,15.30
2018-10-11T08:56:37.781Z,14.70
2018-10-11T08:57:37.766Z,15.20
2018-10-11T08:58:37.756Z,14.90
2018-10-11T08:59:37.853Z,14.70
2018-10-11T09:00:37.751Z,14.10
2018-10-11T09:01:37.725Z,14.60
2018-10-11T09:02:37.708Z,14.20
2018-10-11T09:03:37.818Z,14.20
2018-10-11T09:04:37.688Z,14.30
2018-10-11T09:05:37.696Z,13.70
2018-10-11T09:06:37.666Z,13.80
2018-10-11T09:07:37.653Z,13.60
2018-10-11T09:08:37.648Z,13.40
2018-10-11T09:09:37.650Z,13.20
2018-10-11T09:10:38.517Z,13.50
2018-10-11T09:11:37.611Z,13.70
2018-10-11T09:12:37.602Z,12.60
2018-10-11T09:13:37.592Z,12.60
2018-10-11T09:14:37.576Z,12.80
2018-10-11T09:15:37.593Z,13.30
2018-10-11T09:16:37.592Z,13.60
2018-10-11T09:17:37.543Z,14.00
2018-10-11T09:18:37.532Z,13.80
2018-10-11T09:19:37.524Z,13.50
2018-10-11T09:20:37.511Z,13.30
2018-10-11T09:21:37.520Z,12.80
2018-10-11T09:22:37.491Z,13.00
2018-10-11T09:23:37.480Z,12.90
2018-10-11T09:24:37.467Z,12.70
2018-10-11T09:25:37.716Z,12.70
2018-10-11T09:26:37.476Z,13.30
2018-10-11T09:27:37.437Z,12.30
2018-10-11T09:28:37.431Z,13.20
2018-10-11T09:29:37.413Z,13.00
2018-10-11T09:30:37.400Z,12.80
2018-10-11T09:31:37.411Z,12.90
2018-10-11T09:32:37.398Z,12.70
2018-10-11T09:33:37.371Z,12.40
2018-10-11T09:34:37.356Z,12.60
2018-10-11T09:35:37.344Z,12.60
2018-10-11T09:36:37.373Z,12.70
2018-10-11T09:37:37.324Z,12.30
2018-10-11T09:38:37.329Z,12.20
2018-10-11T09:39:37.314Z,12.10
2018-10-11T09:40:37.312Z,12.20
2018-10-11T09:41:37.311Z,11.80
2018-10-11T09:42:37.267Z,11.50
2018-10-11T09:43:37.257Z,11.60
2018-10-11T09:44:37.254Z,11.10
2018-10-11T09:45:37.234Z,11.10
2018-10-11T09:46:37.224Z,11.30
2018-10-11T09:47:37.231Z,10.70
2018-10-11T09:48:37.207Z,10.70
2018-10-11T09:49:37.194Z,11.20
2018-10-11T09:50:37.179Z,10.80
2018-10-11T09:51:37.170Z,10.50
2018-10-11T09:52:37.182Z,10.40
2018-10-11T09:53:37.147Z,11.00
2018-10-11T09:54:37.154Z,10.50
2018-10-11T09:55:37.124Z,10.20
2018-10-11T09:56:37.118Z,10.60
2018-10-11T09:57:37.142Z,10.50
2018-10-11T09:58:37.091Z,10.60
2018-10-11T09:59:37.080Z,10.60
2018-10-11T10:00:37.070Z,10.90
2018-10-11T10:01:37.058Z,10.60
2018-10-11T10:02:37.049Z,10.30
2018-10-11T10:03:37.061Z,10.60
2018-10-11T10:04:37.027Z,10.40
2018-10-11T10:05:37.016Z,10.30
2018-10-11T10:06:37.004Z,10.10
2018-10-11T10:07:36.993Z,10.70
2018-10-11T10:08:37.000Z,10.40
2018-10-11T10:09:36.971Z,10.30
2018-10-11T10:10:36.962Z,10.20
2018-10-11T10:11:36.949Z,10.20
2018-10-11T10:12:36.941Z,10.10
2018-10-11T10:13:36.955Z,10.30
2018-10-11T10:14:36.926Z,10.30
2018-10-11T10:15:36.935Z,9.70
2018-10-11T10:16:36.895Z,10.10
2018-10-11T10:17:36.882Z,10.10
2018-10-11T10:18:36.872Z,9.80
2018-10-11T10:19:36.877Z,10.10
2018-10-11T10:20:36.864Z,10.40
2018-10-11T10:21:36.852Z,10.20
2018-10-11T10:22:36.828Z,10.60
2018-10-11T10:23:36.827Z,10.50
2018-10-11T10:24:36.834Z,10.10
2018-10-11T10:25:36.846Z,10.60
2018-10-11T10:26:36.788Z,10.90
2018-10-11T10:27:36.772Z,10.50
2018-10-11T10:28:36.767Z,11.20
2018-10-11T10:29:36.780Z,10.50
2018-10-11T10:30:36.738Z,10.70
2018-10-11T10:31:37.189Z,11.00
2018-10-11T10:32:36.742Z,10.90
2018-10-11T10:33:36.713Z,10.70
2018-10-11T10:34:36.718Z,11.00
2018-10-11T10:35:36.706Z,10.80
2018-10-11T10:36:36.713Z,10.40
2018-10-11T10:37:36.663Z,11.10
2018-10-11T10:38:36.652Z,11.00
2018-10-11T10:39:36.641Z,10.80
2018-10-11T10:40:36.629Z,10.50
2018-10-11T10:41:36.621Z,10.40
2018-10-11T10:42:36.649Z,10.50
2018-10-11T10:43:36.609Z,10.50
2018-10-11T10:44:36.594Z,10.70
2018-10-11T10:45:36.578Z,10.80
2018-10-11T10:46:36.572Z,11.30
2018-10-11T10:47:36.576Z,11.20
2018-10-11T10:48:36.543Z,10.90
2018-10-11T10:49:36.539Z,11.00
2018-10-11T10:50:36.521Z,10.90
2018-10-11T10:51:36.508Z,11.40
2018-10-11T10:52:36.525Z,10.90
2018-10-11T10:53:36.489Z,10.80
2018-10-11T10:54:36.478Z,11.30
2018-10-11T10:55:36.482Z,10.70
2018-10-11T10:56:36.455Z,10.90
2018-10-11T10:57:36.463Z,10.80
2018-10-11T10:58:36.433Z,10.60
2018-10-11T10:59:36.435Z,10.70
2018-10-11T11:00:36.414Z,10.70
2018-10-11T11:01:36.410Z,10.90
2018-10-11T11:02:36.404Z,11.30
2018-10-11T11:03:36.379Z,10.60
2018-10-11T11:04:36.365Z,11.00
2018-10-11T11:05:36.355Z,10.60
2018-10-11T11:06:36.344Z,10.50
2018-10-11T11:07:36.363Z,10.70
2018-10-11T11:08:36.327Z,10.60
2018-10-11T11:09:36.312Z,10.80
2018-10-11T11:10:36.300Z,10.80
2018-10-11T11:11:36.295Z,10.60
2018-10-11T11:12:36.281Z,10.70
2018-10-11T11:13:36.287Z,11.00
2018-10-11T11:14:36.266Z,10.60
2018-10-11T11:15:36.245Z,10.30
2018-10-11T11:16:36.243Z,10.20
2018-10-11T11:17:36.246Z,10.70
2018-10-11T11:18:36.215Z,10.20
2018-10-11T11:19:36.202Z,10.80
2018-10-11T11:20:36.193Z,10.80
2018-10-11T11:21:36.181Z,11.10
2018-10-11T11:22:36.190Z,11.10
2018-10-11T11:23:36.162Z,10.70
2018-10-11T11:24:36.159Z,11.20
2018-10-11T11:25:36.135Z,10.70
2018-10-11T11:26:36.125Z,10.80
2018-10-11T11:27:36.145Z,10.90
2018-10-11T11:28:36.116Z,11.30
2018-10-11T11:29:36.094Z,11.00
2018-10-11T11:30:36.096Z,11.10
2018-10-11T11:31:36.070Z,11.00
2018-10-11T11:32:36.062Z,11.00
2018-10-11T11:33:36.073Z,11.30
2018-10-11T11:34:36.039Z,11.10
2018-10-11T11:35:36.030Z,11.10
2018-10-11T11:36:36.028Z,11.00
2018-10-11T11:37:36.006Z,11.20
2018-10-11T11:38:36.010Z,11.10
2018-10-11T11:39:35.982Z,11.10
2018-10-11T11:40:35.976Z,11.00
2018-10-11T11:41:35.966Z,11.10
2018-10-11T11:42:35.957Z,10.90
2018-10-11T11:43:35.979Z,11.20
2018-10-11T11:44:35.928Z,11.00
2018-10-11T11:45:35.920Z,11.30
2018-10-11T11:46:35.914Z,11.20
2018-10-11T11:47:35.901Z,11.00
2018-10-11T11:48:35.893Z,11.30
2018-10-11T11:49:35.892Z,11.10
2018-10-11T11:50:35.911Z,10.90
2018-10-11T11:51:35.852Z,11.10
2018-10-11T11:52:35.858Z,11.10
2018-10-11T11:53:35.834Z,10.90
2018-10-11T11:54:35.819Z,11.10
2018-10-11T11:55:35.809Z,11.00
2018-10-11T11:56:35.802Z,10.90
2018-10-11T11:57:35.817Z,11.50
2018-10-11T11:58:35.776Z,10.90
2018-10-11T11:59:35.766Z,11.40
2018-10-11T12:00:35.754Z,11.40
2018-10-11T12:01:35.745Z,11.00
2018-10-11T12:02:35.746Z,11.10
2018-10-11T12:03:35.738Z,11.50
2018-10-11T12:04:35.711Z,11.80
2018-10-11T12:05:35.701Z,10.90
2018-10-11T12:06:35.695Z,11.00
2018-10-11T12:07:35.683Z,11.00
2018-10-11T12:08:35.687Z,11.50
2018-10-11T12:09:35.659Z,11.30
2018-10-11T12:10:35.765Z,10.70
2018-10-11T12:11:35.647Z,11.10
2018-10-11T12:12:35.626Z,11.40
2018-10-11T12:13:35.654Z,10.90
2018-10-11T12:14:35.601Z,11.30
2018-10-11T12:15:35.604Z,11.10
2018-10-11T12:16:35.658Z,11.10
2018-10-11T12:17:35.588Z,10.90
2018-10-11T12:18:35.564Z,11.10
2018-10-11T12:19:35.571Z,11.10
2018-10-11T12:20:35.537Z,11.50
2018-10-11T12:21:35.527Z,10.70
2018-10-11T12:22:35.515Z,11.00
2018-10-11T12:23:35.509Z,10.20
2018-10-11T12:24:35.517Z,10.90
2018-10-11T12:25:35.482Z,11.00
2018-10-11T12:26:35.471Z,11.00
2018-10-11T12:27:35.486Z,10.90
2018-10-11T12:28:35.476Z,11.40
2018-10-11T12:29:35.469Z,11.30
2018-10-11T12:30:35.432Z,10.90
2018-10-11T12:31:35.420Z,10.90
2018-10-11T12:32:35.409Z,10.80
2018-10-11T12:33:35.397Z,10.50
2018-10-11T12:34:35.387Z,10.60
2018-10-11T12:35:35.394Z,10.50
2018-10-11T12:36:35.503Z,10.40
2018-10-11T12:37:35.404Z,9.90
2018-10-11T12:38:35.356Z,10.80
2018-10-11T12:39:35.331Z,10.70
2018-10-11T12:40:35.345Z,10.40
2018-10-11T12:41:35.319Z,10.70
2018-10-11T12:42:35.397Z,10.40
2018-10-11T12:43:35.286Z,11.30
2018-10-11T12:44:35.278Z,10.20
2018-10-11T12:45:35.299Z,10.90
2018-10-11T12:46:36.518Z,11.10
2018-10-11T12:47:35.244Z,10.40
2018-10-11T12:48:35.235Z,10.50
2018-10-11T12:49:39.229Z,10.10
2018-10-11T12:50:35.210Z,10.00
2018-10-11T12:51:35.287Z,10.30
2018-10-11T12:52:35.189Z,10.20